Time;durP1;ratioP1;P1;durP2;ratioP2;P2;SDS_P1;SDS_P2;PMS_P1;PMS_P2;Temp;Humidity;BMP_temperature;BMP_pressure;BME280_temperature;BME280_humidity;BME280_pressure;Samples;Min_cycle;Max_cycle;Signal;HPM_P1;HPM_P2
2023/10/25 00:02:08;;;;;;;5.47;0.90;;;;;;;19.12;63.05;95590.53;10340584;28;20535;-29
2023/10/25 00:07:08;;;;;;;3.47;0.93;;;;;;;19.12;63.42;95585.47;10342567;28;20832;-28
2023/10/25 00:12:08;;;;;;;3.73;1.00;;;;;;;19.09;63.28;95586.34;10339551;28;20305;-28
2023/10/25 00:17:09;;;;;;;1.73;0.73;;;;;;;19.10;63.13;95584.66;10343704;28;20158;-28
2023/10/25 00:22:09;;;;;;;6.70;0.90;;;;;;;19.09;63.25;95580.47;10341098;28;20030;-27
2023/10/25 00:27:12;;;;;;;4.20;1.48;;;;;;;19.07;63.25;95582.16;10345393;28;20049;-28
2023/10/25 00:32:14;;;;;;;2.70;1.00;;;;;;;19.04;63.07;95574.63;10352658;28;20721;-28
2023/10/25 00:37:15;;;;;;;4.30;1.92;;;;;;;19.06;63.22;95590.66;10344576;28;20405;-28
2023/10/25 00:42:15;;;;;;;3.95;1.40;;;;;;;19.06;63.38;95593.19;10345115;28;20039;-28
2023/10/25 00:47:15;;;;;;;2.53;0.73;;;;;;;19.04;63.18;95584.78;10343398;28;20043;-27
2023/10/25 00:52:16;;;;;;;2.93;1.30;;;;;;;19.05;63.31;95588.97;10345636;28;20073;-28
2023/10/25 00:57:17;;;;;;;2.47;1.27;;;;;;;19.05;63.13;95588.97;10336182;28;20329;-27
2023/10/25 01:02:17;;;;;;;4.38;1.40;;;;;;;19.03;63.14;95580.56;10349996;28;20046;-28
2023/10/25 01:07:18;;;;;;;2.13;0.85;;;;;;;19.04;63.10;95585.63;10334101;28;20113;-29
2023/10/25 01:12:18;;;;;;;3.40;1.37;;;;;;;19.04;63.09;95577.16;10338273;28;20066;-28
2023/10/25 01:17:18;;;;;;;2.88;0.93;;;;;;;19.04;62.98;95572.94;10332345;28;20038;-28
2023/10/25 01:22:24;;;;;;;4.37;1.47;;;;;;;19.04;62.94;95562.78;10337452;28;20033;-28
2023/10/25 01:27:25;;;;;;;4.20;1.00;;;;;;;19.02;63.09;95558.63;10344782;28;20557;-27
2023/10/25 01:32:25;;;;;;;3.87;1.10;;;;;;;19.03;63.00;95555.22;10348954;28;20292;-28
2023/10/25 01:37:25;;;;;;;1.83;1.03;;;;;;;19.04;62.97;95551.81;10340025;28;20097;-28
2023/10/25 01:42:26;;;;;;;2.03;0.90;;;;;;;19.04;62.97;95551.81;10354659;28;20097;-28
2023/10/25 01:47:27;;;;;;;2.37;1.03;;;;;;;19.01;63.00;95547.63;10349420;28;20022;-28
2023/10/25 01:52:27;;;;;;;4.22;0.75;;;;;;;18.99;62.82;95526.53;10349236;28;20038;-28
2023/10/25 01:57:27;;;;;;;3.92;1.58;;;;;;;19.02;62.84;95529.00;10350631;28;20041;-28
2023/10/25 02:02:28;;;;;;;2.67;1.03;;;;;;;19.02;62.91;95529.00;10357183;28;20456;-30
2023/10/25 02:07:28;;;;;;;3.17;1.00;;;;;;;19.04;62.79;95516.28;10354943;28;20288;-28
2023/10/25 02:12:29;;;;;;;4.53;0.95;;;;;;;19.02;62.65;95513.78;10363050;28;20097;-28
2023/10/25 02:17:30;;;;;;;2.22;0.98;;;;;;;19.03;62.60;95504.47;10349677;28;20030;-28
2023/10/25 02:22:30;;;;;;;3.07;0.77;;;;;;;19.03;62.75;95494.31;10354776;28;20034;-28
2023/10/25 02:27:31;;;;;;;3.72;1.33;;;;;;;19.04;62.51;95493.47;10358795;28;20034;-28
2023/10/25 02:32:31;;;;;;;2.73;0.90;;;;;;;19.04;62.66;95485.84;10350083;28;20408;-28
2023/10/25 02:37:31;;;;;;;4.63;0.90;;;;;;;19.04;62.46;95493.47;10355485;28;20080;-28
2023/10/25 02:42:33;;;;;;;1.70;0.90;;;;;;;19.06;62.45;95494.25;10360849;28;20515;-28
2023/10/25 02:47:33;;;;;;;2.67;0.98;;;;;;;19.10;62.20;95480.66;10353698;28;20700;-27
2023/10/25 02:52:35;;;;;;;2.20;0.85;;;;;;;19.11;62.42;95478.09;10353595;28;20050;-28
2023/10/25 02:57:35;;;;;;;5.20;1.23;;;;;;;19.10;62.14;95480.66;10361787;28;20027;-28
2023/10/25 03:02:41;;;;;;;2.30;0.73;;;;;;;19.09;62.15;95464.59;10361551;28;20076;-28
2023/10/25 03:07:43;;;;;;;2.23;0.77;;;;;;;19.08;62.03;95457.03;10352666;28;20288;-30
2023/10/25 03:12:44;;;;;;;1.17;0.70;;;;;;;19.08;61.95;95459.56;10345998;28;20030;-28
2023/10/25 03:17:44;;;;;;;2.77;1.70;;;;;;;19.08;62.11;95447.69;10352819;28;20038;-28
2023/10/25 03:22:45;;;;;;;2.50;0.70;;;;;;;19.07;62.18;95445.19;10358158;28;20022;-27
2023/10/25 03:27:45;;;;;;;4.33;1.30;;;;;;;19.08;61.94;95441.81;10350176;28;20378;-28
2023/10/25 03:32:45;;;;;;;2.10;1.00;;;;;;;19.04;62.08;95430.91;10353768;28;20034;-29
2023/10/25 03:37:46;;;;;;;6.90;1.07;;;;;;;19.05;62.03;95432.56;10348359;28;20293;-27
2023/10/25 03:42:46;;;;;;;3.50;0.97;;;;;;;19.08;61.88;95431.66;10355088;28;20467;-28
2023/10/25 03:47:47;;;;;;;5.63;1.07;;;;;;;19.12;61.68;95433.25;10342921;28;20512;-29
2023/10/25 03:52:50;;;;;;;1.80;0.93;;;;;;;19.15;61.53;95433.16;10343169;28;20331;-28
2023/10/25 03:57:50;;;;;;;2.73;0.70;;;;;;;19.18;61.46;95433.13;10339182;28;20042;-28
2023/10/25 04:02:50;;;;;;;1.60;0.77;;;;;;;19.20;61.24;95426.31;10336117;28;20120;-29
2023/10/25 04:07:51;;;;;;;2.83;1.10;;;;;;;19.19;61.25;95415.31;10342374;28;20029;-28
2023/10/25 04:12:52;;;;;;;4.32;0.90;;;;;;;19.24;61.14;95403.38;10340058;28;20477;-28
2023/10/25 04:17:52;;;;;;;4.40;1.27;;;;;;;19.24;61.11;95385.63;10338679;28;20039;-28
2023/10/25 04:22:52;;;;;;;2.47;1.10;;;;;;;19.28;61.05;95386.38;10338149;28;20030;-28
2023/10/25 04:27:53;;;;;;;1.73;1.00;;;;;;;19.28;61.17;95373.69;10341995;28;20026;-27
2023/10/25 04:32:54;;;;;;;2.17;0.90;;;;;;;19.28;61.29;95378.78;10350530;28;20087;-28
2023/10/25 04:37:57;;;;;;;3.73;1.10;;;;;;;19.28;60.86;95363.53;10357068;28;20046;-27
2023/10/25 04:42:57;;;;;;;4.03;0.88;;;;;;;19.26;61.07;95342.47;10347310;28;20038;-28
2023/10/25 04:47:57;;;;;;;6.05;1.02;;;;;;;19.29;61.15;95339.84;10342049;28;20405;-27
2023/10/25 04:52:59;;;;;;;5.07;1.30;;;;;;;19.27;61.33;95337.31;10345141;28;20120;-28
2023/10/25 04:57:59;;;;;;;4.15;1.38;;;;;;;19.27;61.07;95342.41;10344122;28;20400;-28
2023/10/25 05:03:00;;;;;;;13.23;1.33;;;;;;;19.25;60.94;95338.25;10345791;28;20021;-28
2023/10/25 05:08:01;;;;;;;5.77;1.40;;;;;;;19.29;60.70;95324.59;10338789;28;20034;-28
2023/10/25 05:13:01;;;;;;;4.70;1.10;;;;;;;19.21;61.30;95296.06;10357654;28;20281;-29
2023/10/25 05:18:02;;;;;;;5.13;1.30;;;;;;;19.26;61.37;95301.88;10348425;28;20034;-28
2023/10/25 05:23:03;;;;;;;6.57;1.48;;;;;;;19.23;60.75;95302.75;10339411;28;20117;-29
2023/10/25 05:28:04;;;;;;;3.60;0.70;;;;;;;18.96;57.28;95289.91;10345768;28;20026;-28
2023/10/25 05:33:07;;;;;;;6.13;1.02;;;;;;;18.96;57.77;95284.81;10352471;28;20481;-27
2023/10/25 05:38:07;;;;;;;1.90;0.70;;;;;;;19.05;58.59;95275.28;10357027;28;20058;-28
2023/10/25 05:43:14;;;;;;;1.85;0.88;;;;;;;19.09;58.93;95265.91;10352528;28;20040;-28
2023/10/25 05:48:15;;;;;;;4.70;0.60;;;;;;;19.13;59.03;95257.34;10359978;28;20517;-28
2023/10/25 05:53:16;;;;;;;3.55;1.00;;;;;;;19.14;59.13;95269.13;10352576;28;20034;-29
2023/10/25 05:58:16;;;;;;;4.40;0.70;;;;;;;19.14;59.34;95267.44;10358589;28;20046;-28
2023/10/25 06:03:19;;;;;;;3.45;1.00;;;;;;;19.13;59.61;95270.88;10343722;28;20038;-29
2023/10/25 06:08:20;;;;;;;3.90;1.92;;;;;;;19.14;59.75;95274.22;10339741;28;20034;-28
2023/10/25 06:13:21;;;;;;;3.05;1.17;;;;;;;19.14;59.66;95259.84;10351495;28;20045;-28
2023/10/25 06:18:22;;;;;;;4.70;0.85;;;;;;;19.13;59.80;95268.31;10344114;28;20030;-29
2023/10/25 06:23:23;;;;;;;1.70;0.63;;;;;;;19.13;59.62;95263.25;10358969;28;20041;-30
2023/10/25 06:28:23;;;;;;;3.70;0.80;;;;;;;19.13;59.96;95267.47;10353567;28;20492;-30
2023/10/25 06:33:25;;;;;;;2.77;1.40;;;;;;;19.12;59.89;95265.81;10356411;28;20065;-28
2023/10/25 06:38:27;;;;;;;2.42;0.80;;;;;;;19.15;59.95;95270.81;10350438;28;20288;-29
2023/10/25 06:43:29;;;;;;;3.28;0.80;;;;;;;19.13;59.99;95267.47;10360835;28;20030;-28
2023/10/25 06:48:30;;;;;;;2.05;0.60;;;;;;;19.14;59.94;95254.78;10339580;28;20030;-28
2023/10/25 06:53:30;;;;;;;2.47;0.80;;;;;;;19.13;59.79;95237.03;10355901;28;20034;-30
2023/10/25 06:58:32;;;;;;;1.10;0.65;;;;;;;19.15;59.71;95245.44;10356038;28;20034;-28
2023/10/25 07:03:34;;;;;;;2.35;0.60;;;;;;;19.14;59.75;95236.16;10335150;28;20045;-28
2023/10/25 07:08:35;;;;;;;4.97;1.42;;;;;;;19.10;59.93;95227.00;10342611;28;20045;-28
2023/10/25 07:13:35;;;;;;;2.72;0.75;;;;;;;19.12;59.83;95223.53;10355117;28;20048;-28
2023/10/25 07:18:36;;;;;;;1.87;0.67;;;;;;;19.08;60.00;95214.34;10349181;28;20137;-28
2023/10/25 07:23:36;;;;;;;2.63;0.60;;;;;;;19.11;59.85;95213.44;10349315;28;20034;-29
2023/10/25 07:28:36;;;;;;;3.83;0.73;;;;;;;19.11;60.01;95203.28;10351408;28;20287;-28
2023/10/25 07:33:38;;;;;;;2.77;0.70;;;;;;;19.08;59.98;95193.22;10358125;28;20053;-29
2023/10/25 07:38:38;;;;;;;1.90;0.70;;;;;;;19.11;59.83;95185.53;10351707;28;20135;-28
2023/10/25 07:43:39;;;;;;;1.07;0.40;;;;;;;19.12;59.85;95184.66;10338624;28;20473;-27
2023/10/25 07:48:40;;;;;;;1.77;0.43;;;;;;;19.10;60.00;95176.25;10359889;28;20036;-28
2023/10/25 07:53:40;;;;;;;1.85;0.50;;;;;;;19.10;59.89;95161.03;10350705;28;20038;-28
2023/10/25 07:58:40;;;;;;;2.70;0.60;;;;;;;19.11;59.91;95153.41;10360802;28;20108;-28
2023/10/25 08:03:41;;;;;;;1.77;0.33;;;;;;;19.12;59.98;95166.88;10345480;28;20492;-28
2023/10/25 08:08:41;;;;;;;2.70;0.47;;;;;;;19.10;59.87;95155.97;10356122;28;20113;-29
2023/10/25 08:13:44;;;;;;;1.43;0.60;;;;;;;19.09;59.99;95154.31;10347542;28;20038;-29
2023/10/25 08:18:45;;;;;;;1.05;0.70;;;;;;;19.09;60.25;95172.06;10345785;28;20315;-29
2023/10/25 08:23:46;;;;;;;1.37;0.60;;;;;;;19.09;60.03;95161.91;10352664;28;20034;-29
2023/10/25 08:28:47;;;;;;;2.67;0.45;;;;;;;19.09;60.32;95149.22;10337369;28;20073;-28
2023/10/25 08:33:47;;;;;;;1.15;0.40;;;;;;;19.09;59.83;95141.63;10354791;28;20048;-28
2023/10/25 08:38:48;;;;;;;0.40;0.37;;;;;;;19.08;59.86;95138.25;10340233;28;20057;-28
2023/10/25 08:43:48;;;;;;;0.95;0.50;;;;;;;19.09;59.89;95123.88;10343194;28;20287;-28
2023/10/25 08:48:55;;;;;;;0.90;0.40;;;;;;;19.08;60.00;95117.13;10349307;28;20061;-29
2023/10/25 08:53:59;;;;;;;2.00;0.82;;;;;;;19.07;59.90;95126.44;10344933;28;20050;-28
2023/10/25 08:58:59;;;;;;;1.08;0.40;;;;;;;19.07;59.74;95121.38;10346473;28;20506;-28
2023/10/25 09:04:06;;;;;;;0.82;0.40;;;;;;;19.07;59.98;95117.97;10346629;28;20037;-29
2023/10/25 09:09:08;;;;;;;0.73;0.40;;;;;;;19.07;59.86;95107.84;10345412;28;20125;-28
2023/10/25 09:14:10;;;;;;;0.95;0.50;;;;;;;19.04;60.11;95103.69;10347213;28;20049;-29
2023/10/25 09:19:11;;;;;;;0.85;0.32;;;;;;;19.05;60.18;95101.97;10348097;28;20062;-27
2023/10/25 09:24:11;;;;;;;0.63;0.40;;;;;;;19.06;59.97;95103.63;10345498;28;20054;-28
2023/10/25 09:29:14;;;;;;;1.00;0.37;;;;;;;19.05;60.11;95096.91;10351552;28;20025;-29
2023/10/25 09:34:15;;;;;;;1.05;0.47;;;;;;;19.06;59.97;95101.94;10344380;28;20096;-30
2023/10/25 09:39:15;;;;;;;1.10;0.50;;;;;;;19.05;60.03;95087.59;10348432;28;20384;-29
2023/10/25 09:44:19;;;;;;;0.40;0.40;;;;;;;19.05;59.95;95096.91;10343595;28;20035;-28
2023/10/25 09:49:25;;;;;;;0.95;0.30;;;;;;;19.03;60.13;95084.28;10357696;28;20061;-28
2023/10/25 09:54:34;;;;;;;0.68;0.50;;;;;;;19.05;59.99;95081.69;10350682;28;20141;-28
2023/10/25 09:59:37;;;;;;;0.63;0.30;;;;;;;19.06;60.10;95073.19;10345736;28;20469;-29
2023/10/25 10:05:36;;;;;;;1.20;0.57;;;;;;;19.06;60.00;95065.59;10344620;28;20042;-29
2023/10/25 10:10:49;;;;;;;1.23;0.50;;;;;;;19.08;59.94;95061.34;10341656;28;20464;-28
2023/10/25 10:16:09;;;;;;;0.68;0.30;;;;;;;19.08;59.85;95046.94;10349995;28;20093;-29
2023/10/25 10:21:10;;;;;;;0.63;0.30;;;;;;;19.09;59.44;95056.19;10344896;28;20405;-28
2023/10/25 10:26:11;;;;;;;0.68;0.40;;;;;;;19.11;59.45;95043.47;10345170;28;20026;-28
2023/10/25 10:31:13;;;;;;;0.20;0.20;;;;;;;19.14;59.57;95036.63;10346284;28;20030;-28
2023/10/25 10:36:30;;;;;;;2.13;0.20;;;;;;;19.15;59.60;95039.97;10348734;28;20489;-28
2023/10/25 10:41:31;;;;;;;;;;;;;;;19.15;59.44;95022.22;10350197;28;20035;-29
2023/10/25 10:46:37;;;;;;;2.25;0.40;;;;;;;19.12;59.71;95017.25;10349181;28;19920;-28
2023/10/25 10:51:38;;;;;;;0.88;0.52;;;;;;;19.13;60.11;95003.69;10356570;28;20069;-28
2023/10/25 10:56:38;;;;;;;1.00;0.35;;;;;;;19.13;60.21;94993.53;10352035;28;20575;-28
2023/10/25 11:01:38;;;;;;;1.42;0.52;;;;;;;19.13;60.42;94999.44;10340608;28;20042;-28
2023/10/25 11:06:39;;;;;;;7.57;1.27;;;;;;;19.13;60.76;94985.91;10356192;28;20124;-28
2023/10/25 11:11:40;;;;;;;10.77;1.05;;;;;;;19.21;60.71;94978.94;10346695;28;20035;-29
2023/10/25 11:16:40;;;;;;;5.40;1.03;;;;;;;19.19;60.05;94962.94;10340421;28;20045;-28
2023/10/25 11:21:42;;;;;;;7.43;1.20;;;;;;;19.20;60.31;94951.91;10357977;28;20319;-29
2023/10/25 11:26:42;;;;;;;6.88;0.75;;;;;;;19.17;60.09;94931.69;10344464;28;20026;-28
2023/10/25 11:31:44;;;;;;;6.73;1.10;;;;;;;19.21;60.36;94940.88;10344890;28;20041;-29
2023/10/25 11:36:44;;;;;;;4.65;1.20;;;;;;;19.20;60.02;94937.53;10335274;28;20273;-27
2023/10/25 11:41:45;;;;;;;5.40;1.20;;;;;;;19.22;60.43;94955.22;10340078;28;20038;-29
2023/10/25 11:46:45;;;;;;;10.38;1.77;;;;;;;19.22;60.37;94962.84;10349100;28;20061;-28
2023/10/25 11:51:47;;;;;;;7.32;1.58;;;;;;;19.21;60.29;94956.09;10338352;28;20026;-28
2023/10/25 11:56:48;;;;;;;8.43;1.77;;;;;;;19.12;60.50;94943.69;10353280;28;20045;-29
2023/10/25 12:01:48;;;;;;;3.38;1.10;;;;;;;19.20;60.35;94939.22;10348369;28;20040;-29
2023/10/25 12:06:49;;;;;;;6.37;1.90;;;;;;;19.18;60.36;94924.03;10343805;28;20361;-29
2023/10/25 12:11:49;;;;;;;5.07;2.60;;;;;;;19.17;60.07;94908.88;10349065;28;20283;-28
2023/10/25 12:16:49;;;;;;;3.97;1.73;;;;;;;19.18;60.32;94908.81;10346649;28;20041;-28
2023/10/25 12:21:54;;;;;;;10.27;2.97;;;;;;;19.19;60.21;94914.75;10343364;28;20663;-28
2023/10/25 12:26:54;;;;;;;4.60;1.52;;;;;;;19.18;60.14;94915.59;10346622;28;20461;-29
2023/10/25 12:31:57;;;;;;;4.63;1.40;;;;;;;19.19;60.39;94922.34;10331260;28;20061;-28
2023/10/25 12:36:58;;;;;;;3.83;1.30;;;;;;;19.14;60.31;94930.06;10347977;28;20485;-27
2023/10/25 12:41:58;;;;;;;10.18;1.73;;;;;;;19.14;60.56;94926.69;10350245;28;20046;-28
2023/10/25 12:46:58;;;;;;;5.37;1.83;;;;;;;19.13;60.67;94938.56;10344155;28;20092;-29
2023/10/25 12:52:01;;;;;;;6.80;2.00;;;;;;;19.16;60.87;94924.97;10356455;28;20034;-29
2023/10/25 12:57:01;;;;;;;7.20;1.40;;;;;;;19.14;60.49;94916.56;10334616;28;20030;-29
2023/10/25 13:02:02;;;;;;;2.45;1.20;;;;;;;19.13;60.75;94910.66;10344433;28;20022;-28
2023/10/25 13:07:02;;;;;;;6.40;1.40;;;;;;;19.13;60.61;94892.06;10341191;28;20042;-28
2023/10/25 13:12:03;;;;;;;5.25;1.00;;;;;;;19.13;60.60;94887.00;10343426;28;20676;-28
2023/10/25 13:17:04;;;;;;;2.45;1.23;;;;;;;19.13;60.38;94856.56;10340709;28;20026;-28
2023/10/25 13:22:04;;;;;;;2.05;0.88;;;;;;;19.11;60.78;94821.13;10333321;28;20052;-29
2023/10/25 13:27:04;;;;;;;4.13;1.30;;;;;;;19.08;60.81;94868.56;10347658;28;20030;-28
2023/10/25 13:32:05;;;;;;;4.35;1.63;;;;;;;19.10;60.72;94871.88;10349459;28;20730;-28
2023/10/25 13:37:06;;;;;;;3.30;1.13;;;;;;;19.10;60.54;94866.81;10335224;28;20080;-28
2023/10/25 13:42:06;;;;;;;1.05;0.75;;;;;;;19.08;60.75;94863.50;10351265;28;20041;-28
2023/10/25 13:47:07;;;;;;;2.27;1.20;;;;;;;18.99;60.59;94859.53;10353984;28;20400;-29
2023/10/25 13:52:07;;;;;;;6.97;1.20;;;;;;;19.01;60.72;94862.84;10342964;28;20548;-31
2023/10/25 13:57:07;;;;;;;2.57;1.10;;;;;;;19.05;60.75;94843.28;10348962;28;20771;-29
2023/10/25 14:02:08;;;;;;;1.30;0.80;;;;;;;19.05;60.66;94833.16;10349495;28;20300;-28
2023/10/25 14:07:08;;;;;;;1.77;1.00;;;;;;;19.03;60.55;94809.56;10357207;28;20034;-29
2023/10/25 14:12:09;;;;;;;2.77;0.90;;;;;;;18.99;60.83;94823.22;10352104;28;20384;-29
2023/10/25 14:17:09;;;;;;;7.70;1.00;;;;;;;19.04;61.33;94816.28;10361008;28;20440;-29
2023/10/25 14:22:09;;;;;;;3.17;1.15;;;;;;;19.03;61.36;94795.19;10341996;28;20038;-32
2023/10/25 14:27:10;;;;;;;11.93;1.50;;;;;;;19.05;61.20;94787.50;10367287;28;20432;-28
2023/10/25 14:32:10;;;;;;;5.33;1.10;;;;;;;19.05;61.35;94767.22;10346738;28;20564;-28
2023/10/25 14:37:11;;;;;;;3.80;1.15;;;;;;;18.99;61.60;94769.97;10343942;28;20022;-28
2023/10/25 14:42:11;;;;;;;9.40;2.07;;;;;;;19.03;61.39;94767.28;10350610;28;20038;-29
2023/10/25 14:47:11;;;;;;;2.67;0.73;;;;;;;19.03;61.35;94763.91;10344636;28;20030;-28
2023/10/25 14:52:12;;;;;;;2.70;1.70;;;;;;;19.07;60.63;94758.69;10348684;28;20775;-29
2023/10/25 14:57:12;;;;;;;3.78;0.98;;;;;;;19.11;60.80;94764.47;10345612;28;20358;-29
2023/10/25 15:02:13;;;;;;;3.30;1.07;;;;;;;19.15;60.58;94748.25;10336926;28;20026;-28
2023/10/25 15:07:14;;;;;;;3.37;0.70;;;;;;;19.17;60.57;94746.53;10352782;28;20095;-28
2023/10/25 15:12:15;;;;;;;1.52;0.85;;;;;;;19.17;60.81;94731.31;10340677;28;20030;-28
2023/10/25 15:17:15;;;;;;;1.27;0.67;;;;;;;19.19;60.54;94699.94;10347415;28;20030;-28
2023/10/25 15:22:15;;;;;;;3.13;0.80;;;;;;;19.22;60.46;94719.31;10352532;28;20772;-28
2023/10/25 15:27:17;;;;;;;2.33;0.90;;;;;;;19.21;60.51;94693.13;10348089;28;20038;-28
2023/10/25 15:32:18;;;;;;;3.22;1.17;;;;;;;19.24;60.54;94656.69;10344726;28;20294;-28
2023/10/25 15:37:18;;;;;;;1.58;0.85;;;;;;;19.25;60.53;94665.94;10357861;28;20037;-28
2023/10/25 15:42:18;;;;;;;2.77;0.80;;;;;;;19.23;60.45;94652.47;10347652;28;20080;-29
2023/10/25 15:47:21;;;;;;;2.17;1.50;;;;;;;19.23;60.42;94693.91;10353808;28;20338;-29
2023/10/25 15:52:21;;;;;;;3.38;1.27;;;;;;;19.20;60.63;94726.16;10335708;28;20093;-29
2023/10/25 15:57:22;;;;;;;3.30;1.80;;;;;;;19.12;60.86;94712.88;10348525;28;20041;-28
2023/10/25 16:02:22;;;;;;;14.53;8.00;;;;;;;19.05;61.31;94724.09;10347841;28;20485;-28
2023/10/25 16:07:22;;;;;;;10.70;6.10;;;;;;;19.13;61.22;94725.50;10341771;28;20042;-28
2023/10/25 16:12:24;;;;;;;7.63;4.20;;;;;;;19.17;61.31;94716.09;10348065;28;20034;-28
2023/10/25 16:17:25;;;;;;;14.85;7.32;;;;;;;19.20;61.49;94695.72;10349624;28;20038;-28
2023/10/25 16:22:25;;;;;;;19.92;10.07;;;;;;;19.21;61.29;94692.28;10338363;28;20042;-28
2023/10/25 16:27:26;;;;;;;24.40;13.60;;;;;;;19.17;61.00;94708.47;10339818;28;20696;-29
2023/10/25 16:32:26;;;;;;;24.70;15.10;;;;;;;19.22;61.11;94758.19;10339598;28;20038;-28
2023/10/25 16:37:26;;;;;;;34.87;17.37;;;;;;;19.21;61.78;94773.47;10339491;28;20041;-28
2023/10/25 16:42:27;;;;;;;30.77;16.37;;;;;;;19.23;61.74;94809.75;10349436;28;20093;-28
2023/10/25 16:47:27;;;;;;;28.08;15.93;;;;;;;19.13;63.53;94867.56;10343274;28;20042;-29
2023/10/25 16:52:28;;;;;;;32.50;15.27;;;;;;;19.23;63.25;94843.56;10350925;28;20491;-29
2023/10/25 16:57:28;;;;;;;28.30;14.97;;;;;;;19.23;63.48;94878.25;10345886;28;20096;-29
2023/10/25 17:02:31;;;;;;;28.30;15.10;;;;;;;19.22;63.06;94856.28;10344564;28;20030;-29
2023/10/25 17:07:31;;;;;;;20.88;13.45;;;;;;;19.23;63.05;94861.34;10342415;28;21404;-28
2023/10/25 17:12:32;;;;;;;24.57;14.63;;;;;;;19.32;63.97;94883.03;10341776;28;20042;-28
2023/10/25 17:17:32;;;;;;;24.43;15.27;;;;;;;19.37;63.51;94886.25;10344798;28;20041;-28
2023/10/25 17:22:33;;;;;;;31.50;13.47;;;;;;;19.43;63.39;94919.06;10346770;28;20038;-28
2023/10/25 17:27:33;;;;;;;25.07;13.83;;;;;;;19.45;63.45;94909.66;10358561;28;20778;-28
2023/10/25 17:32:33;;;;;;;21.10;11.10;;;;;;;19.53;63.21;94907.72;10355456;28;20351;-28
2023/10/25 17:37:34;;;;;;;23.87;11.30;;;;;;;19.57;63.20;94934.63;10363052;28;20038;-28
2023/10/25 17:42:34;;;;;;;19.90;11.13;;;;;;;19.59;63.19;94928.63;10357898;28;20053;-29
2023/10/25 17:47:50;;;;;;;23.70;10.47;;;;;;;19.67;62.80;94911.44;10351812;28;20104;-28
2023/10/25 17:52:51;;;;;;;23.70;11.65;;;;;;;19.73;62.64;94915.50;10356780;28;20042;-29
2023/10/25 17:57:52;;;;;;;17.20;10.13;;;;;;;19.68;62.63;94902.13;10359843;28;20034;-28
2023/10/25 18:02:52;;;;;;;22.58;10.57;;;;;;;19.63;62.69;94907.38;10352561;28;20034;-28
2023/10/25 18:07:52;;;;;;;24.33;10.73;;;;;;;19.62;63.40;94903.19;10347931;28;20026;-28
2023/10/25 18:12:53;;;;;;;17.53;9.77;;;;;;;19.64;62.44;94900.56;10346463;28;20293;-28
2023/10/25 18:17:54;;;;;;;14.97;9.07;;;;;;;19.56;62.24;94882.22;10339302;28;20289;-30
2023/10/25 18:22:55;;;;;;;15.80;9.55;;;;;;;19.59;61.91;94908.34;10338837;28;20032;-28
2023/10/25 18:27:56;;;;;;;14.68;8.77;;;;;;;19.54;62.36;94966.06;10339036;28;20050;-29
2023/10/25 18:32:57;;;;;;;19.15;9.02;;;;;;;19.55;62.79;94971.94;10354899;28;20103;-28
2023/10/25 18:37:57;;;;;;;14.30;8.33;;;;;;;19.54;62.76;95010.91;10349973;28;20333;-28
2023/10/25 18:42:58;;;;;;;18.07;9.17;;;;;;;19.52;62.98;95032.97;10335278;28;20281;-28
2023/10/25 18:47:58;;;;;;;19.57;9.07;;;;;;;19.51;63.06;95006.75;10337111;28;20304;-30
2023/10/25 18:52:58;;;;;;;14.07;7.70;;;;;;;19.50;62.95;94986.50;10347425;28;20037;-29
2023/10/25 18:57:59;;;;;;;15.73;8.17;;;;;;;19.50;63.22;94991.59;10344526;28;20091;-29
2023/10/25 19:03:00;;;;;;;14.05;7.50;;;;;;;19.49;63.26;95010.22;10337946;28;20357;-29
2023/10/25 19:08:00;;;;;;;14.97;7.67;;;;;;;19.48;63.30;95008.53;10336158;28;20519;-29
2023/10/25 19:13:02;;;;;;;13.33;7.70;;;;;;;19.45;63.22;95003.56;10355661;28;20038;-29
2023/10/25 19:18:02;;;;;;;13.93;7.72;;;;;;;19.45;63.07;94990.88;10352231;28;20300;-29
2023/10/25 19:23:03;;;;;;;10.90;6.57;;;;;;;19.44;63.20;95004.44;10351979;28;20718;-29
2023/10/25 19:28:03;;;;;;;12.77;6.60;;;;;;;19.40;63.22;94987.63;10348938;28;20399;-29
2023/10/25 19:33:03;;;;;;;11.32;6.25;;;;;;;19.44;63.40;94990.03;10345128;28;20484;-28
2023/10/25 19:38:04;;;;;;;13.17;6.07;;;;;;;19.44;63.16;94999.38;10349405;28;20038;-29
2023/10/25 19:43:07;;;;;;;14.37;6.50;;;;;;;19.42;62.99;95001.13;10342771;28;20030;-30
2023/10/25 19:48:07;;;;;;;11.90;6.40;;;;;;;19.42;63.18;95016.38;10340536;28;20580;-28
2023/10/25 19:53:08;;;;;;;10.07;5.68;;;;;;;19.42;63.20;95016.38;10349875;28;20034;-28
2023/10/25 19:58:08;;;;;;;13.73;5.30;;;;;;;19.42;63.09;95017.19;10355069;28;20412;-27
2023/10/25 20:03:08;;;;;;;11.93;5.63;;;;;;;19.41;63.21;95027.41;10342349;28;20443;-29
2023/10/25 20:08:09;;;;;;;10.63;5.50;;;;;;;19.42;63.11;95036.66;10341732;28;20029;-28
2023/10/25 20:13:09;;;;;;;9.03;5.30;;;;;;;19.40;63.11;95038.41;10350610;28;20057;-30
2023/10/25 20:18:09;;;;;;;10.43;6.07;;;;;;;19.40;62.82;95030.78;10356640;28;20054;-29
2023/10/25 20:23:10;;;;;;;8.73;5.20;;;;;;;19.38;62.98;95032.53;10348133;28;20075;-29
2023/10/25 20:28:10;;;;;;;8.63;4.95;;;;;;;19.37;63.06;95028.34;10339586;28;20053;-28
2023/10/25 20:33:11;;;;;;;9.17;5.43;;;;;;;19.37;62.89;95041.03;10342175;28;20045;-29
2023/10/25 20:38:11;;;;;;;8.02;4.80;;;;;;;19.36;63.12;95031.75;10347573;28;20711;-28
2023/10/25 20:43:11;;;;;;;7.83;5.33;;;;;;;19.35;62.83;95035.19;10344470;28;20529;-28
2023/10/25 20:48:12;;;;;;;10.27;5.20;;;;;;;19.34;62.87;95043.69;10351557;28;20592;-28
2023/10/25 20:53:12;;;;;;;8.93;4.47;;;;;;;19.34;62.84;95033.53;10345894;28;20524;-28
2023/10/25 20:58:12;;;;;;;10.60;5.07;;;;;;;19.33;62.82;95026.78;10342579;28;20034;-29
2023/10/25 21:03:13;;;;;;;8.77;4.40;;;;;;;19.34;62.65;95033.53;10363033;28;20084;-30
2023/10/25 21:08:13;;;;;;;10.10;5.03;;;;;;;19.32;62.67;95031.03;10363155;28;20034;-29
2023/10/25 21:13:14;;;;;;;10.23;4.40;;;;;;;19.33;62.33;95031.88;10356091;28;20294;-29
2023/10/25 21:18:14;;;;;;;10.52;4.93;;;;;;;19.32;62.81;95048.78;10358990;28;20300;-28
2023/10/25 21:23:15;;;;;;;11.50;5.00;;;;;;;19.33;63.00;95057.25;10353148;28;20037;-29
2023/10/25 21:28:16;;;;;;;8.05;4.32;;;;;;;19.33;63.12;95062.31;10365586;28;20076;-29
2023/10/25 21:33:16;;;;;;;10.30;4.77;;;;;;;19.31;63.29;95074.19;10361649;28;20089;-29
2023/10/25 21:38:16;;;;;;;7.37;4.30;;;;;;;19.28;63.54;95059.91;10352808;28;20041;-29
2023/10/25 21:43:17;;;;;;;9.90;4.27;;;;;;;19.30;63.59;95072.53;10355158;28;20057;-28
2023/10/25 21:48:17;;;;;;;11.83;4.17;;;;;;;19.28;63.74;95062.44;10356700;28;20025;-29
2023/10/25 21:53:17;;;;;;;12.20;5.10;;;;;;;19.29;63.99;95073.41;10348817;28;20052;-29
2023/10/25 21:58:18;;;;;;;7.53;3.93;;;;;;;19.29;63.90;95079.34;10351668;28;20092;-28
2023/10/25 22:03:20;;;;;;;7.72;4.47;;;;;;;19.29;63.96;95068.34;10355056;28;20806;-29
2023/10/25 22:08:21;;;;;;;9.02;4.57;;;;;;;19.27;63.94;95082.78;10346543;28;20528;-29
2023/10/25 22:13:21;;;;;;;11.53;5.37;;;;;;;19.27;64.15;95072.63;10348354;28;20034;-29
2023/10/25 22:18:21;;;;;;;9.40;4.90;;;;;;;19.26;63.78;95070.97;10347011;28;20038;-28
2023/10/25 22:23:22;;;;;;;8.80;4.50;;;;;;;19.26;63.71;95078.59;10349293;28;20305;-28
2023/10/25 22:28:23;;;;;;;11.73;4.80;;;;;;;19.26;64.03;95074.31;10349722;28;20288;-29
2023/10/25 22:33:23;;;;;;;10.30;5.55;;;;;;;19.26;64.22;95086.19;10343088;28;20038;-29
2023/10/25 22:38:23;;;;;;;18.80;5.23;;;;;;;19.26;64.25;95073.50;10344013;28;20042;-29
2023/10/25 22:43:24;;;;;;;9.33;4.10;;;;;;;19.24;64.02;95067.66;10359268;28;20049;-28
2023/10/25 22:48:24;;;;;;;9.10;4.10;;;;;;;19.24;64.08;95076.09;10336502;28;20042;-30
2023/10/25 22:53:25;;;;;;;6.83;4.53;;;;;;;19.25;63.88;95084.53;10338239;28;20052;-28
2023/10/25 22:58:25;;;;;;;13.73;4.27;;;;;;;19.23;64.54;95094.72;10355858;28;20034;-29
2023/10/25 23:03:25;;;;;;;8.50;3.93;;;;;;;19.23;64.06;95097.25;10349606;28;20292;-28
2023/10/25 23:08:26;;;;;;;8.37;4.10;;;;;;;19.22;64.12;95104.91;10344253;28;20033;-28
2023/10/25 23:13:26;;;;;;;8.90;4.43;;;;;;;19.22;64.21;95102.38;10344936;28;20034;-29